createdAt,value
2023-05-20T00:00:49.281Z,2.60
2023-05-20T00:03:17.164Z,2.43
2023-05-20T00:05:44.427Z,2.30
2023-05-20T00:08:11.382Z,2.00
2023-05-20T00:10:38.695Z,2.80
2023-05-20T00:13:06.606Z,2.07
2023-05-20T00:15:34.956Z,3.13
2023-05-20T00:18:02.860Z,2.93
2023-05-20T00:20:29.891Z,2.87
2023-05-20T00:22:56.846Z,2.93
2023-05-20T00:25:23.703Z,3.87
2023-05-20T00:27:50.665Z,2.60
2023-05-20T00:30:17.690Z,3.03
2023-05-20T00:32:44.636Z,3.40
2023-05-20T00:35:11.674Z,5.03
2023-05-20T00:37:38.616Z,4.50
2023-05-20T00:40:06.051Z,2.37
2023-05-20T00:42:33.026Z,2.93
2023-05-20T00:45:00.439Z,2.93
2023-05-20T00:47:30.140Z,2.57
2023-05-20T00:49:58.131Z,6.17
2023-05-20T00:52:25.810Z,3.87
2023-05-20T00:54:52.923Z,2.80
2023-05-20T00:57:20.530Z,2.17
2023-05-20T00:59:47.557Z,2.43
2023-05-20T01:02:14.679Z,1.70
2023-05-20T01:04:47.210Z,1.90
2023-05-20T01:07:16.476Z,3.17
2023-05-20T01:09:43.734Z,2.40
2023-05-20T01:12:18.293Z,2.80
2023-05-20T01:15:08.431Z,1.83
2023-05-20T01:17:41.605Z,2.87
2023-05-20T01:20:10.427Z,2.33
2023-05-20T01:22:47.213Z,2.67
2023-05-20T01:25:14.144Z,3.70
2023-05-20T01:27:41.350Z,3.50
2023-05-20T01:30:08.908Z,3.20
2023-05-20T01:32:40.558Z,3.50
2023-05-20T01:35:08.110Z,3.23
2023-05-20T01:37:39.515Z,3.70
2023-05-20T01:40:09.569Z,3.17
2023-05-20T01:42:37.909Z,4.00
2023-05-20T01:45:05.811Z,2.40
2023-05-20T01:47:32.811Z,2.77
2023-05-20T01:49:59.779Z,4.30
2023-05-20T01:52:26.747Z,3.73
2023-05-20T01:54:53.719Z,3.47
2023-05-20T01:57:22.196Z,3.10
2023-05-20T01:59:49.401Z,4.27
2023-05-20T02:02:17.050Z,4.03
2023-05-20T02:04:49.334Z,4.50
2023-05-20T02:07:18.758Z,4.57
2023-05-20T02:09:46.347Z,4.20
2023-05-20T02:12:16.957Z,3.60
2023-05-20T02:14:45.838Z,4.53
2023-05-20T02:17:16.238Z,3.97
2023-05-20T02:19:44.039Z,4.27
2023-05-20T02:22:11.094Z,4.33
2023-05-20T02:24:37.988Z,3.80
2023-05-20T02:27:06.350Z,3.57
2023-05-20T02:29:33.294Z,4.10
2023-05-20T02:32:00.212Z,3.47
2023-05-20T02:34:28.061Z,3.20
2023-05-20T02:36:55.082Z,3.97
2023-05-20T02:39:22.312Z,4.30
2023-05-20T02:41:49.221Z,5.30
2023-05-20T02:44:16.891Z,2.67
2023-05-20T02:46:43.926Z,4.97
2023-05-20T02:49:10.998Z,5.27
2023-05-20T02:51:37.882Z,4.03
2023-05-20T02:54:04.867Z,4.77
2023-05-20T02:56:32.603Z,4.70
2023-05-20T02:59:00.190Z,3.80
2023-05-20T03:01:27.395Z,3.60
2023-05-20T03:03:54.537Z,3.60
2023-05-20T03:06:21.517Z,4.90
2023-05-20T03:08:48.455Z,3.40
2023-05-20T03:11:16.056Z,5.67
2023-05-20T03:13:43.088Z,2.17
2023-05-20T03:16:13.133Z,2.07
2023-05-20T03:18:40.770Z,2.90
2023-05-20T03:21:07.892Z,3.30
2023-05-20T03:23:35.272Z,1.83
2023-05-20T03:26:03.271Z,3.17
2023-05-20T03:28:30.240Z,2.27
2023-05-20T03:30:57.352Z,2.60
2023-05-20T03:33:26.302Z,3.07
2023-05-20T03:35:53.381Z,3.77
2023-05-20T03:38:20.394Z,2.57
2023-05-20T03:40:47.314Z,2.43
2023-05-20T03:43:14.216Z,2.53
2023-05-20T03:45:41.325Z,2.70
2023-05-20T03:48:08.351Z,3.40
2023-05-20T03:50:35.566Z,4.00
2023-05-20T03:53:02.510Z,2.60
2023-05-20T03:55:29.456Z,3.83
2023-05-20T03:57:56.431Z,4.37
2023-05-20T04:00:24.060Z,4.50
2023-05-20T04:02:51.109Z,4.37
2023-05-20T04:05:18.549Z,3.47
2023-05-20T04:07:45.542Z,4.37
2023-05-20T04:10:12.631Z,3.97
2023-05-20T04:12:39.611Z,3.87
2023-05-20T04:15:07.166Z,4.20
2023-05-20T04:17:34.142Z,3.07
2023-05-20T04:20:01.007Z,4.17
2023-05-20T04:22:27.997Z,4.10
2023-05-20T04:24:56.484Z,3.70
2023-05-20T04:27:23.754Z,3.27
2023-05-20T04:29:50.724Z,2.73
2023-05-20T04:32:19.199Z,3.70
2023-05-20T04:34:46.795Z,3.17
2023-05-20T04:37:14.070Z,4.00
2023-05-20T04:39:41.121Z,4.40
2023-05-20T04:42:08.074Z,4.60
2023-05-20T04:44:34.991Z,4.00
2023-05-20T04:47:01.856Z,3.13
2023-05-20T04:49:31.525Z,3.50
2023-05-20T04:51:58.583Z,2.90
2023-05-20T04:54:25.501Z,4.07
2023-05-20T04:56:52.397Z,3.37
2023-05-20T04:59:19.378Z,3.43
2023-05-20T05:01:46.379Z,4.67
2023-05-20T05:04:13.474Z,3.70
2023-05-20T05:06:40.505Z,3.33
2023-05-20T05:09:08.060Z,3.30
2023-05-20T05:11:34.976Z,3.77
2023-05-20T05:14:01.905Z,2.20
2023-05-20T05:16:28.839Z,2.77
2023-05-20T05:18:55.898Z,3.20
2023-05-20T05:21:22.743Z,2.63
2023-05-20T05:23:49.642Z,3.87
2023-05-20T05:26:16.583Z,3.13
2023-05-20T05:28:43.474Z,2.63
2023-05-20T05:31:10.582Z,2.30
2023-05-20T05:33:37.564Z,1.90
2023-05-20T05:36:05.485Z,2.57
2023-05-20T05:38:32.965Z,4.00
2023-05-20T05:40:59.842Z,2.80
2023-05-20T05:43:26.743Z,1.87
2023-05-20T05:45:53.591Z,2.13
2023-05-20T05:48:21.213Z,2.13
2023-05-20T05:50:48.353Z,2.57
2023-05-20T05:53:15.228Z,1.93
2023-05-20T05:55:42.331Z,2.10
2023-05-20T05:58:09.273Z,2.07
2023-05-20T06:00:36.236Z,1.67
2023-05-20T06:03:03.326Z,2.97
2023-05-20T06:05:31.936Z,2.57
2023-05-20T06:07:59.097Z,3.23
2023-05-20T06:10:25.984Z,3.80
2023-05-20T06:12:52.940Z,10.57
2023-05-20T06:15:20.119Z,3.50
2023-05-20T06:17:47.145Z,6.00
2023-05-20T06:20:14.180Z,3.23
2023-05-20T06:22:41.612Z,3.00
2023-05-20T06:25:09.322Z,18.93
2023-05-20T06:27:36.316Z,5.17
2023-05-20T06:30:03.467Z,4.77
2023-05-20T06:32:30.430Z,4.10
2023-05-20T06:34:57.410Z,3.97
2023-05-20T06:37:24.551Z,6.30
2023-05-20T06:39:53.936Z,2.87
2023-05-20T06:42:21.713Z,4.20
2023-05-20T06:44:48.603Z,4.70
2023-05-20T06:47:16.861Z,7.90
2023-05-20T06:49:47.413Z,3.53
2023-05-20T06:52:14.565Z,3.70
2023-05-20T06:54:41.876Z,2.57
2023-05-20T06:57:09.169Z,4.03
2023-05-20T06:59:37.376Z,7.67
2023-05-20T07:02:05.613Z,3.17
2023-05-20T07:04:32.709Z,2.77
2023-05-20T07:06:59.649Z,3.57
2023-05-20T07:09:26.512Z,5.50
2023-05-20T07:11:53.490Z,1.90
2023-05-20T07:14:20.489Z,3.83
2023-05-20T07:16:47.376Z,4.50
2023-05-20T07:19:14.279Z,3.43
2023-05-20T07:21:41.478Z,3.37
2023-05-20T07:24:08.376Z,5.67
2023-05-20T07:26:36.474Z,9.97
2023-05-20T07:29:06.814Z,6.33
2023-05-20T07:31:33.755Z,3.20
2023-05-20T07:34:00.749Z,6.97
2023-05-20T07:36:28.639Z,4.50
2023-05-20T07:39:02.673Z,5.10
2023-05-20T07:41:31.395Z,3.00
2023-05-20T07:43:58.468Z,3.17
2023-05-20T07:46:26.129Z,2.90
2023-05-20T07:51:47.289Z,2.33
2023-05-20T07:54:15.383Z,3.20
2023-05-20T07:56:42.363Z,3.90
2023-05-20T07:59:09.317Z,2.80
2023-05-20T08:01:36.565Z,2.83
2023-05-20T08:04:03.917Z,3.30
2023-05-20T08:06:32.610Z,3.70
2023-05-20T08:08:59.516Z,4.33
2023-05-20T08:11:26.616Z,2.73
2023-05-20T08:13:55.117Z,5.00
2023-05-20T08:16:22.451Z,3.30
2023-05-20T08:18:49.376Z,1.93
2023-05-20T08:21:16.532Z,2.40
2023-05-20T08:23:43.503Z,3.90
2023-05-20T08:26:10.412Z,3.13
2023-05-20T08:28:37.963Z,4.00
2023-05-20T08:31:05.165Z,3.17
2023-05-20T08:33:32.243Z,4.40
2023-05-20T08:35:59.166Z,2.57
2023-05-20T08:38:26.233Z,2.10
2023-05-20T08:40:56.215Z,6.53
2023-05-20T08:43:26.752Z,6.60
2023-05-20T08:45:54.757Z,4.33
2023-05-20T08:48:24.713Z,5.10
2023-05-20T08:50:53.126Z,3.93
2023-05-20T08:53:22.664Z,8.20
2023-05-20T08:55:55.417Z,2.60
2023-05-20T08:58:23.317Z,3.37
2023-05-20T09:00:53.109Z,3.20
2023-05-20T09:03:24.316Z,3.30
2023-05-20T09:05:51.521Z,3.73
2023-05-20T09:08:18.537Z,5.30
2023-05-20T09:10:45.593Z,4.53
2023-05-20T09:13:12.564Z,3.73
2023-05-20T09:15:40.369Z,5.30
2023-05-20T09:18:08.392Z,3.23
2023-05-20T09:20:37.533Z,3.60
2023-05-20T09:23:09.633Z,3.87
2023-05-20T09:25:41.577Z,3.70
2023-05-20T09:28:09.309Z,4.47
2023-05-20T09:30:39.431Z,4.17
2023-05-20T09:33:09.316Z,3.40
2023-05-20T09:35:39.747Z,4.60
2023-05-20T09:38:10.111Z,4.40
2023-05-20T09:40:47.187Z,2.47
2023-05-20T09:43:23.491Z,5.00
2023-05-20T09:45:58.889Z,5.87
2023-05-20T09:48:34.734Z,4.17
2023-05-20T09:51:02.773Z,4.20
2023-05-20T09:53:30.186Z,2.60
2023-05-20T09:56:00.782Z,4.00
2023-05-20T09:58:29.587Z,5.70
2023-05-20T10:00:59.835Z,4.70
2023-05-20T10:03:43.244Z,4.47
2023-05-20T10:07:04.367Z,4.53
2023-05-20T10:09:43.288Z,6.73
2023-05-20T10:12:42.818Z,5.47
2023-05-20T10:15:24.014Z,5.30
2023-05-20T10:18:16.173Z,3.70
2023-05-20T10:20:50.930Z,4.40
2023-05-20T10:23:27.703Z,2.80
2023-05-20T10:25:56.655Z,3.80
2023-05-20T10:28:37.498Z,5.10
2023-05-20T10:31:17.099Z,3.23
2023-05-20T10:33:45.932Z,3.00
2023-05-20T10:36:24.234Z,3.60
2023-05-20T10:38:56.281Z,5.93
2023-05-20T10:41:27.870Z,5.20
2023-05-20T10:44:07.215Z,4.70
2023-05-20T10:46:53.997Z,2.90
2023-05-20T10:49:26.170Z,3.33
2023-05-20T10:51:55.552Z,3.13
2023-05-20T10:54:23.272Z,4.30
2023-05-20T10:56:54.136Z,2.67
2023-05-20T10:59:21.814Z,2.90
2023-05-20T11:01:49.569Z,4.30
2023-05-20T11:04:17.555Z,3.97
2023-05-20T11:06:53.829Z,3.07
2023-05-20T11:09:20.984Z,6.00
2023-05-20T11:11:48.392Z,4.33
2023-05-20T11:14:16.374Z,4.07
2023-05-20T11:16:43.464Z,5.13
2023-05-20T11:19:17.001Z,4.57
2023-05-20T11:21:45.668Z,34.10
2023-05-20T11:24:13.468Z,7.20
2023-05-20T11:26:41.255Z,4.63
2023-05-20T11:29:08.298Z,7.60
2023-05-20T11:31:39.103Z,4.80
2023-05-20T11:34:06.106Z,6.17
2023-05-20T11:36:33.098Z,5.70
2023-05-20T11:39:00.951Z,3.80
2023-05-20T11:41:28.718Z,3.70
2023-05-20T11:44:00.416Z,9.23
2023-05-20T11:46:28.545Z,10.47
2023-05-20T11:48:56.309Z,7.17
2023-05-20T11:51:32.427Z,7.40
2023-05-20T11:54:01.407Z,5.30
2023-05-20T11:56:30.681Z,7.57
2023-05-20T11:58:59.580Z,6.77
2023-05-20T12:01:28.170Z,5.20
2023-05-20T12:03:55.797Z,3.70
2023-05-20T12:06:22.818Z,6.00
2023-05-20T12:08:49.771Z,3.77
2023-05-20T12:11:17.070Z,4.60
2023-05-20T12:13:44.039Z,4.30
2023-05-20T12:16:10.970Z,3.90
2023-05-20T12:18:37.949Z,5.93
2023-05-20T12:21:04.855Z,3.83
2023-05-20T12:23:34.093Z,3.40
2023-05-20T12:26:01.275Z,2.53
2023-05-20T12:28:28.322Z,3.50
2023-05-20T12:30:55.454Z,3.23
2023-05-20T12:33:22.624Z,3.23
2023-05-20T12:35:49.568Z,4.20
2023-05-20T12:38:16.574Z,4.70
2023-05-20T12:40:44.042Z,3.33
2023-05-20T12:43:10.979Z,3.27
2023-05-20T12:45:37.881Z,4.10
2023-05-20T12:48:07.201Z,9.60
2023-05-20T12:50:34.429Z,3.17
2023-05-20T12:53:01.595Z,2.20
2023-05-20T12:55:28.559Z,5.00
2023-05-20T12:57:56.251Z,3.93
2023-05-20T13:00:23.376Z,3.43
2023-05-20T13:02:50.419Z,2.97
2023-05-20T13:05:17.409Z,3.67
2023-05-20T13:07:44.752Z,4.00
2023-05-20T13:10:11.874Z,2.57
2023-05-20T13:12:38.952Z,4.70
2023-05-20T13:15:06.535Z,3.23
2023-05-20T13:17:33.935Z,5.23
2023-05-20T13:20:01.005Z,3.30
2023-05-20T13:22:28.225Z,3.73
2023-05-20T13:24:55.171Z,6.87
2023-05-20T13:27:22.067Z,4.10
2023-05-20T13:29:50.152Z,5.07
2023-05-20T13:32:17.079Z,3.60
2023-05-20T13:34:43.952Z,5.40
2023-05-20T13:37:10.901Z,4.30
2023-05-20T13:39:37.958Z,3.73
2023-05-20T13:42:05.073Z,5.53
2023-05-20T13:44:32.658Z,4.60
2023-05-20T13:47:00.176Z,5.83
2023-05-20T13:49:27.124Z,7.47
2023-05-20T13:51:54.057Z,3.07
2023-05-20T13:54:21.768Z,5.10
2023-05-20T13:56:48.841Z,3.63
2023-05-20T13:59:15.879Z,5.03
2023-05-20T14:01:46.571Z,5.57
2023-05-20T14:04:13.575Z,7.70
2023-05-20T14:06:40.571Z,7.67
2023-05-20T14:09:09.165Z,5.67
2023-05-20T14:11:36.871Z,4.73
2023-05-20T14:14:04.249Z,4.20
2023-05-20T14:16:31.829Z,5.53
2023-05-20T14:18:59.335Z,7.77
2023-05-20T14:21:26.462Z,4.07
2023-05-20T14:23:53.487Z,9.30
2023-05-20T14:26:21.555Z,3.73
2023-05-20T14:28:48.533Z,4.43
2023-05-20T14:31:15.950Z,3.90
2023-05-20T14:33:43.210Z,5.13
2023-05-20T14:36:10.982Z,3.70
2023-05-20T14:38:37.897Z,6.93
2023-05-20T14:41:04.912Z,6.80
2023-05-20T14:43:32.209Z,6.47
2023-05-20T14:45:59.246Z,5.60
2023-05-20T14:48:26.478Z,4.30
2023-05-20T14:50:53.555Z,5.00
2023-05-20T14:53:20.843Z,6.53
2023-05-20T14:55:47.792Z,6.33
2023-05-20T14:58:14.829Z,5.23
2023-05-20T15:00:42.952Z,5.23
2023-05-20T15:03:10.138Z,5.03
2023-05-20T15:05:37.185Z,3.90
2023-05-20T15:08:04.335Z,3.97
2023-05-20T15:10:31.486Z,3.80
2023-05-20T15:12:58.423Z,4.53
2023-05-20T15:15:25.497Z,6.83
2023-05-20T15:17:52.536Z,4.93
2023-05-20T15:20:19.728Z,7.10
2023-05-20T15:22:48.242Z,8.83
2023-05-20T15:25:15.312Z,7.93
2023-05-20T15:27:42.817Z,26.10
2023-05-20T15:30:10.426Z,6.13
2023-05-20T15:32:37.817Z,10.60
2023-05-20T15:35:05.490Z,5.73
2023-05-20T15:37:32.409Z,28.07
2023-05-20T15:39:59.332Z,34.60
2023-05-20T15:42:26.917Z,20.30
2023-05-20T15:44:53.811Z,29.30
2023-05-20T15:47:21.362Z,37.80
2023-05-20T15:49:48.497Z,39.57
2023-05-20T15:52:15.708Z,20.10
2023-05-20T15:54:42.673Z,41.37
2023-05-20T15:57:10.066Z,7.50
2023-05-20T15:59:37.177Z,5.90
2023-05-20T16:02:04.194Z,6.40
2023-05-20T16:04:32.574Z,5.50
2023-05-20T16:06:59.936Z,11.10
2023-05-20T16:09:26.913Z,24.97
2023-05-20T16:11:53.905Z,17.50
2023-05-20T16:14:21.106Z,13.10
2023-05-20T16:16:48.228Z,15.47
2023-05-20T16:19:15.419Z,25.50
2023-05-20T16:21:42.352Z,25.87
2023-05-20T16:24:09.439Z,16.97
2023-05-20T16:26:36.343Z,10.40
2023-05-20T16:29:03.219Z,4.10
2023-05-20T16:31:30.210Z,4.10
2023-05-20T16:33:57.429Z,4.73
2023-05-20T16:36:24.468Z,5.13
2023-05-20T16:38:51.362Z,16.67
2023-05-20T16:41:18.498Z,43.97
2023-05-20T16:43:45.369Z,54.17
2023-05-20T16:46:14.363Z,47.07
2023-05-20T16:48:42.177Z,32.10
2023-05-20T16:51:09.072Z,47.50
2023-05-20T16:53:35.897Z,34.90
2023-05-20T16:56:03.272Z,19.77
2023-05-20T16:58:31.089Z,7.10
2023-05-20T17:00:58.109Z,6.63
2023-05-20T17:03:25.000Z,39.17
2023-05-20T17:05:51.927Z,42.97
2023-05-20T17:08:18.849Z,5.50
2023-05-20T17:10:45.843Z,10.33
2023-05-20T17:13:12.735Z,25.10
2023-05-20T17:15:39.661Z,15.73
2023-05-20T17:18:06.709Z,11.10
2023-05-20T17:20:33.986Z,9.60
2023-05-20T17:23:01.034Z,6.80
2023-05-20T17:25:27.892Z,7.53
2023-05-20T17:27:54.807Z,7.37
2023-05-20T17:30:21.953Z,6.30
2023-05-20T17:32:50.003Z,7.23
2023-05-20T17:35:20.277Z,8.17
2023-05-20T17:37:47.499Z,13.97
2023-05-20T17:40:14.473Z,6.10
2023-05-20T17:42:41.346Z,8.60
2023-05-20T17:45:08.732Z,13.43
2023-05-20T17:47:35.715Z,6.20
2023-05-20T17:50:03.046Z,8.63
2023-05-20T17:52:30.058Z,8.10
2023-05-20T17:54:56.951Z,7.50
2023-05-20T17:57:23.917Z,4.57
2023-05-20T17:59:50.858Z,6.93
2023-05-20T18:02:18.060Z,17.43
2023-05-20T18:04:44.958Z,20.03
2023-05-20T18:07:13.094Z,25.60
2023-05-20T18:09:40.179Z,14.07
2023-05-20T18:12:07.861Z,6.10
2023-05-20T18:14:34.749Z,12.53
2023-05-20T18:17:01.833Z,6.50
2023-05-20T18:19:28.861Z,4.37
2023-05-20T18:21:56.131Z,6.67
2023-05-20T18:24:23.021Z,6.00
2023-05-20T18:26:49.945Z,3.90
2023-05-20T18:29:16.855Z,8.50
2023-05-20T18:31:43.890Z,4.03
2023-05-20T18:34:11.004Z,8.63
2023-05-20T18:36:37.966Z,3.70
2023-05-20T18:39:05.099Z,4.90
2023-05-20T18:41:45.913Z,8.13
2023-05-20T18:44:18.505Z,7.50
2023-05-20T18:46:46.351Z,2.77
2023-05-20T18:49:13.360Z,5.17
2023-05-20T18:51:40.746Z,4.20
2023-05-20T18:54:07.966Z,5.73
2023-05-20T18:56:35.658Z,6.17
2023-05-20T18:59:02.671Z,8.33
2023-05-20T19:01:29.916Z,4.50
2023-05-20T19:03:56.958Z,3.90
2023-05-20T19:06:23.951Z,3.63
2023-05-20T19:08:50.933Z,2.43
2023-05-20T19:11:17.965Z,4.87
2023-05-20T19:13:45.000Z,2.67
2023-05-20T19:16:12.229Z,3.37
2023-05-20T19:18:39.295Z,5.57
2023-05-20T19:21:06.326Z,4.77
2023-05-20T19:23:33.421Z,6.57
2023-05-20T19:26:00.586Z,3.70
2023-05-20T19:28:27.562Z,6.27
2023-05-20T19:30:54.672Z,5.23
2023-05-20T19:33:22.022Z,8.83
2023-05-20T19:35:49.176Z,6.60
2023-05-20T19:38:16.398Z,8.00
2023-05-20T19:40:47.672Z,3.80
2023-05-20T19:43:14.762Z,8.33
2023-05-20T19:45:41.759Z,5.20
2023-05-20T19:48:09.494Z,5.17
2023-05-20T19:50:37.298Z,5.80
2023-05-20T19:53:07.242Z,5.93
2023-05-20T19:55:36.833Z,4.57
2023-05-20T19:58:04.142Z,8.03
2023-05-20T20:00:31.470Z,9.57
2023-05-20T20:02:59.701Z,9.70
2023-05-20T20:05:27.009Z,8.93
2023-05-20T20:07:54.224Z,7.63
2023-05-20T20:10:21.323Z,8.57
2023-05-20T20:12:48.724Z,7.50
2023-05-20T20:15:16.013Z,4.27
2023-05-20T20:17:51.750Z,4.60
2023-05-20T20:20:19.321Z,8.43
2023-05-20T20:22:46.430Z,6.60
2023-05-20T20:25:14.010Z,8.83
2023-05-20T20:27:43.778Z,8.47
2023-05-20T20:30:14.968Z,16.73
2023-05-20T20:32:42.372Z,12.73
2023-05-20T20:35:10.769Z,4.70
2023-05-20T20:37:38.369Z,4.80
2023-05-20T20:40:13.651Z,3.90
2023-05-20T20:42:44.761Z,4.90
2023-05-20T20:45:17.956Z,4.17
2023-05-20T20:47:45.211Z,5.43
2023-05-20T20:50:12.228Z,6.93
2023-05-20T20:52:39.828Z,5.93
2023-05-20T20:55:07.123Z,8.20
2023-05-20T20:57:35.181Z,16.80
2023-05-20T21:00:07.185Z,7.90
2023-05-20T21:02:34.307Z,13.07
2023-05-20T21:05:02.007Z,9.03
2023-05-20T21:07:30.192Z,6.00
2023-05-20T21:09:57.176Z,8.00
2023-05-20T21:12:24.321Z,15.13
2023-05-20T21:14:51.341Z,21.40
2023-05-20T21:17:18.372Z,15.43
2023-05-20T21:19:45.355Z,5.17
2023-05-20T21:22:12.406Z,4.63
2023-05-20T21:24:39.362Z,5.00
2023-05-20T21:27:06.289Z,15.30
2023-05-20T21:29:35.180Z,7.97
2023-05-20T21:32:02.068Z,4.00
2023-05-20T21:34:28.985Z,4.77
2023-05-20T21:36:56.154Z,3.50
2023-05-20T21:39:23.238Z,9.33
2023-05-20T21:41:50.107Z,8.73
2023-05-20T21:44:16.986Z,7.90
2023-05-20T21:46:44.035Z,5.97
2023-05-20T21:49:11.132Z,6.07
2023-05-20T21:51:38.106Z,5.50
2023-05-20T21:54:05.060Z,9.47
2023-05-20T21:56:31.987Z,8.27
2023-05-20T21:58:58.951Z,4.07
2023-05-20T22:01:25.988Z,9.40
2023-05-20T22:03:53.348Z,5.80
2023-05-20T22:06:21.471Z,8.93
2023-05-20T22:08:49.023Z,7.27
2023-05-20T22:11:16.013Z,5.63
2023-05-20T22:13:43.230Z,8.40
2023-05-20T22:16:10.338Z,5.00
2023-05-20T22:18:38.508Z,39.47
2023-05-20T22:21:06.001Z,6.00
2023-05-20T22:23:32.982Z,14.97
2023-05-20T22:26:00.144Z,7.13
2023-05-20T22:28:27.075Z,8.53
2023-05-20T22:30:54.640Z,8.83
2023-05-20T22:33:22.759Z,7.20
2023-05-20T22:35:51.280Z,5.80
2023-05-20T22:38:18.237Z,5.93
2023-05-20T22:40:45.699Z,7.27
2023-05-20T22:43:13.128Z,6.57
2023-05-20T22:45:40.368Z,6.20
2023-05-20T22:48:07.457Z,8.43
2023-05-20T22:50:37.397Z,9.33
2023-05-20T22:53:04.270Z,10.63
2023-05-20T22:55:31.247Z,6.73
2023-05-20T22:57:58.254Z,8.50
2023-05-20T23:00:25.150Z,5.50
2023-05-20T23:02:52.255Z,7.43
2023-05-20T23:05:19.405Z,6.00
2023-05-20T23:07:46.323Z,12.57
2023-05-20T23:10:13.254Z,4.87
2023-05-20T23:12:40.185Z,6.10
2023-05-20T23:15:08.072Z,5.70
2023-05-20T23:17:35.041Z,17.70
2023-05-20T23:20:05.460Z,16.33
2023-05-20T23:22:32.829Z,7.43
2023-05-20T23:24:59.709Z,8.30
2023-05-20T23:27:26.817Z,10.57
2023-05-20T23:29:53.692Z,15.97
2023-05-20T23:32:20.589Z,14.07
2023-05-20T23:34:47.538Z,6.77
2023-05-20T23:37:14.530Z,5.93
2023-05-20T23:39:41.457Z,12.40
2023-05-20T23:42:08.449Z,15.10
2023-05-20T23:44:35.401Z,9.00
2023-05-20T23:47:03.745Z,11.73
2023-05-20T23:49:31.972Z,9.23
2023-05-20T23:51:58.946Z,8.97
2023-05-20T23:54:25.826Z,13.43
2023-05-20T23:56:52.732Z,6.27
2023-05-20T23:59:19.669Z,7.40
